createdAt,value
2022-08-26T00:00:19.946Z,98999.64
2022-08-26T00:03:03.847Z,98996.79
2022-08-26T00:05:32.332Z,99001.85
2022-08-26T00:08:00.590Z,98994.23
2022-08-26T00:10:29.031Z,98995.06
2022-08-26T00:12:57.344Z,98996.00
2022-08-26T00:15:26.441Z,98995.70
2022-08-26T00:17:56.462Z,98999.16
2022-08-26T00:20:29.090Z,98999.73
2022-08-26T00:22:58.180Z,98990.38
2022-08-26T00:25:27.278Z,98990.27
2022-08-26T00:27:56.241Z,98994.27
2022-08-26T00:30:28.234Z,98994.85
2022-08-26T00:32:58.020Z,98992.04
2022-08-26T00:35:27.951Z,98994.02
2022-08-26T00:37:57.312Z,98997.60
2022-08-26T00:40:35.729Z,98994.56
2022-08-26T00:43:09.279Z,98996.38
2022-08-26T00:45:47.561Z,98997.13
2022-08-26T00:48:20.045Z,98997.42
2022-08-26T00:50:57.853Z,98996.47
2022-08-26T00:53:31.147Z,98997.77
2022-08-26T00:56:17.248Z,98999.13
2022-08-26T00:58:48.264Z,98999.51
2022-08-26T01:01:18.394Z,98998.61
2022-08-26T01:03:52.216Z,98997.66
2022-08-26T01:06:21.232Z,99001.98
2022-08-26T01:08:49.594Z,99004.58
2022-08-26T01:11:26.474Z,99006.15
2022-08-26T01:13:59.045Z,99004.95
2022-08-26T01:16:27.698Z,99003.46
2022-08-26T01:19:11.155Z,99001.83
2022-08-26T01:22:03.865Z,99000.41
2022-08-26T01:24:32.358Z,99001.59
2022-08-26T01:27:08.738Z,99007.39
2022-08-26T01:30:30.540Z,99009.81
2022-08-26T01:33:01.635Z,99007.34
2022-08-26T01:35:30.763Z,99011.36
2022-08-26T01:38:00.793Z,99008.98
2022-08-26T01:40:37.311Z,99013.24
2022-08-26T01:43:09.054Z,99017.44
2022-08-26T01:45:40.664Z,99017.63
2022-08-26T01:48:15.110Z,99019.55
2022-08-26T01:50:45.628Z,99021.31
2022-08-26T01:53:18.359Z,99024.11
2022-08-26T01:55:53.438Z,99018.30
2022-08-26T01:58:30.363Z,99010.98
2022-08-26T02:00:59.402Z,99009.23
2022-08-26T02:03:29.063Z,99011.48
2022-08-26T02:06:02.023Z,99013.63
2022-08-26T02:08:41.473Z,99013.10
2022-08-26T02:11:11.270Z,99008.55
2022-08-26T02:13:49.189Z,99004.95
2022-08-26T02:16:21.939Z,99003.00
2022-08-26T02:18:53.382Z,98998.08
2022-08-26T02:21:22.100Z,98997.91
2022-08-26T02:23:56.167Z,98994.29
2022-08-26T02:26:27.102Z,98994.45
2022-08-26T02:29:05.562Z,98997.20
2022-08-26T02:31:35.942Z,98997.73
2022-08-26T02:34:10.739Z,99001.23
2022-08-26T02:36:40.110Z,99000.80
2022-08-26T02:39:09.475Z,98998.17
2022-08-26T02:41:44.981Z,98998.98
2022-08-26T02:44:13.966Z,98999.57
2022-08-26T02:46:46.840Z,99002.03
2022-08-26T02:49:17.092Z,99001.02
2022-08-26T02:51:49.739Z,98996.54
2022-08-26T02:54:23.879Z,98997.71
2022-08-26T02:56:52.544Z,98996.02
2022-08-26T02:59:20.886Z,98997.77
2022-08-26T03:01:56.107Z,98999.50
2022-08-26T03:04:25.952Z,98991.79
2022-08-26T03:06:55.584Z,98991.57
2022-08-26T03:09:24.711Z,98987.75
2022-08-26T03:11:53.218Z,98991.65
2022-08-26T03:14:24.093Z,98990.08
2022-08-26T03:16:54.639Z,98989.88
2022-08-26T03:19:24.960Z,98985.40
2022-08-26T03:21:57.692Z,98982.38
2022-08-26T03:24:26.827Z,98984.20
2022-08-26T03:26:55.271Z,98987.02
2022-08-26T03:29:42.428Z,98985.05
2022-08-26T03:32:12.122Z,98983.73
2022-08-26T03:34:40.669Z,98982.98
2022-08-26T03:37:09.077Z,98991.66
2022-08-26T03:39:38.122Z,98993.17
2022-08-26T03:42:06.664Z,98994.16
2022-08-26T03:44:37.602Z,98989.52
2022-08-26T03:47:10.786Z,98985.35
2022-08-26T03:49:39.460Z,98983.93
2022-08-26T03:52:07.842Z,98984.78
2022-08-26T03:54:36.370Z,98979.77
2022-08-26T03:57:04.811Z,98981.19
2022-08-26T03:59:33.386Z,98980.83
2022-08-26T04:02:01.930Z,98981.04
2022-08-26T04:04:30.724Z,98980.55
2022-08-26T04:06:59.886Z,98983.40
2022-08-26T04:09:28.302Z,98980.41
2022-08-26T04:11:58.757Z,98982.86
2022-08-26T04:14:27.926Z,98983.14
2022-08-26T04:16:56.970Z,98984.18
2022-08-26T04:19:27.386Z,98981.52
2022-08-26T04:21:55.711Z,98981.66
2022-08-26T04:24:26.719Z,98983.95
2022-08-26T04:26:56.811Z,98985.20
2022-08-26T04:29:26.919Z,98980.09
2022-08-26T04:31:56.366Z,98981.92
2022-08-26T04:34:28.656Z,98979.84
2022-08-26T04:36:58.761Z,98983.83
2022-08-26T04:39:28.069Z,98983.08
2022-08-26T04:41:57.766Z,98986.52
2022-08-26T04:44:29.765Z,98990.27
2022-08-26T04:46:58.753Z,98989.02
2022-08-26T04:49:27.994Z,98991.34
2022-08-26T04:52:05.372Z,98985.41
2022-08-26T04:54:33.747Z,98989.11
2022-08-26T04:57:02.636Z,98991.98
2022-08-26T04:59:30.874Z,98994.14
2022-08-26T05:02:00.977Z,98994.94
2022-08-26T05:04:30.452Z,98993.11
2022-08-26T05:07:02.942Z,98990.23
2022-08-26T05:09:31.544Z,98988.57
2022-08-26T05:11:59.814Z,98988.79
2022-08-26T05:14:28.218Z,98989.45
2022-08-26T05:16:56.594Z,98988.64
2022-08-26T05:19:25.414Z,98986.90
2022-08-26T05:21:56.364Z,98985.20
2022-08-26T05:24:24.945Z,98985.61
2022-08-26T05:26:53.391Z,98989.05
2022-08-26T05:29:21.740Z,98990.45
2022-08-26T05:31:52.451Z,98990.19
2022-08-26T05:34:23.514Z,98990.55
2022-08-26T05:36:56.517Z,98989.01
2022-08-26T05:39:24.873Z,98988.65
2022-08-26T05:41:53.105Z,98987.46
2022-08-26T05:44:22.440Z,98991.02
2022-08-26T05:46:51.933Z,98989.00
2022-08-26T05:49:20.492Z,98987.52
2022-08-26T05:51:51.063Z,98985.37
2022-08-26T05:54:22.289Z,98982.73
2022-08-26T05:56:52.019Z,98984.58
2022-08-26T05:59:24.192Z,98982.13
2022-08-26T06:01:55.175Z,98979.75
2022-08-26T06:04:27.498Z,98976.40
2022-08-26T06:06:57.813Z,98972.95
2022-08-26T06:09:27.091Z,98969.71
2022-08-26T06:11:56.173Z,98969.77
2022-08-26T06:14:26.599Z,98970.08
2022-08-26T06:16:55.076Z,98965.99
2022-08-26T06:19:23.918Z,98969.13
2022-08-26T06:21:54.138Z,98967.98
2022-08-26T06:24:41.923Z,98969.10
2022-08-26T06:27:13.878Z,98970.70
2022-08-26T06:29:43.646Z,98975.78
2022-08-26T06:32:12.086Z,98978.33
2022-08-26T06:34:40.466Z,98975.59
2022-08-26T06:37:09.990Z,98974.85
2022-08-26T06:39:41.266Z,98973.65
2022-08-26T06:42:11.074Z,98973.80
2022-08-26T06:44:41.858Z,98973.10
2022-08-26T06:47:13.199Z,98973.93
2022-08-26T06:49:41.886Z,98976.29
2022-08-26T06:52:12.562Z,98972.45
2022-08-26T06:54:44.262Z,98973.41
2022-08-26T06:57:14.308Z,98973.26
2022-08-26T06:59:45.533Z,98974.96
2022-08-26T07:02:14.923Z,98973.42
2022-08-26T07:04:44.547Z,98967.13
2022-08-26T07:07:16.410Z,98966.15
2022-08-26T07:09:44.727Z,98963.66
2022-08-26T07:12:12.994Z,98966.30
2022-08-26T07:14:43.785Z,98962.83
2022-08-26T07:17:16.349Z,98964.73
2022-08-26T07:19:45.271Z,98965.14
2022-08-26T07:22:14.000Z,98965.45
2022-08-26T07:24:42.676Z,98963.73
2022-08-26T07:27:18.476Z,98956.48
2022-08-26T07:29:46.752Z,98951.22
2022-08-26T07:32:17.209Z,98949.75
2022-08-26T07:34:46.321Z,98944.14
2022-08-26T07:37:14.662Z,98947.48
2022-08-26T07:39:44.654Z,98944.76
2022-08-26T07:42:15.047Z,98943.05
2022-08-26T07:44:44.083Z,98948.18
2022-08-26T07:47:25.884Z,98948.36
2022-08-26T07:49:57.632Z,98950.82
2022-08-26T07:52:29.019Z,98948.25
2022-08-26T07:55:00.756Z,98947.52
2022-08-26T07:57:30.568Z,98944.21
2022-08-26T07:59:59.696Z,98941.13
2022-08-26T08:02:29.910Z,98939.11
2022-08-26T08:04:58.555Z,98935.11
2022-08-26T08:07:44.479Z,98936.39
2022-08-26T08:10:17.992Z,98930.84
2022-08-26T08:12:48.526Z,98925.83
2022-08-26T08:15:20.237Z,98923.69
2022-08-26T08:17:50.498Z,98923.75
2022-08-26T08:20:22.327Z,98923.27
2022-08-26T08:22:52.749Z,98925.64
2022-08-26T08:25:23.419Z,98923.02
2022-08-26T08:27:51.750Z,98920.69
2022-08-26T08:30:23.121Z,98922.14
2022-08-26T08:32:52.672Z,98917.16
2022-08-26T08:35:22.747Z,98912.98
2022-08-26T08:37:54.511Z,98917.74
2022-08-26T08:40:26.215Z,98917.02
2022-08-26T08:43:40.345Z,98914.71
2022-08-26T08:46:15.401Z,98910.39
2022-08-26T08:48:48.589Z,98912.63
2022-08-26T08:51:54.472Z,98906.11
2022-08-26T08:54:26.653Z,98903.83
2022-08-26T08:57:15.821Z,98902.99
2022-08-26T08:59:59.986Z,98898.73
2022-08-26T09:02:48.357Z,98898.80
2022-08-26T09:05:28.665Z,98902.00
2022-08-26T09:08:06.589Z,98903.68
2022-08-26T09:10:47.253Z,98901.71
2022-08-26T09:13:25.308Z,98901.27
2022-08-26T09:16:06.834Z,98896.64
2022-08-26T09:18:53.203Z,98899.83
2022-08-26T09:21:25.275Z,98896.17
2022-08-26T09:23:56.627Z,98891.02
2022-08-26T09:26:41.246Z,98894.75
2022-08-26T09:29:18.292Z,98894.63
2022-08-26T09:31:46.730Z,98898.64
2022-08-26T09:34:17.447Z,98889.61
2022-08-26T09:36:59.595Z,98895.44
2022-08-26T09:39:29.779Z,98892.53
2022-08-26T09:42:10.410Z,98888.47
2022-08-26T09:44:57.259Z,98886.20
2022-08-26T09:47:33.154Z,98884.05
2022-08-26T09:50:36.139Z,98878.44
2022-08-26T09:53:16.240Z,98877.23
2022-08-26T09:55:47.836Z,98878.00
2022-08-26T09:58:33.879Z,98873.08
2022-08-26T10:01:05.868Z,98868.29
2022-08-26T10:03:39.630Z,98870.02
2022-08-26T10:06:23.520Z,98869.03
2022-08-26T10:08:57.288Z,98871.37
2022-08-26T10:11:53.683Z,98869.88
2022-08-26T10:14:31.065Z,98863.27
2022-08-26T10:17:07.670Z,98859.36
2022-08-26T10:19:55.884Z,98854.60
2022-08-26T10:23:01.218Z,98852.98
2022-08-26T10:25:34.529Z,98848.89
2022-08-26T10:28:12.344Z,98847.20
2022-08-26T10:30:47.063Z,98844.94
2022-08-26T10:33:18.184Z,98846.91
2022-08-26T10:35:55.202Z,98840.07
2022-08-26T10:38:32.651Z,98843.27
2022-08-26T10:41:13.241Z,98838.54
2022-08-26T10:43:50.989Z,98842.02
2022-08-26T10:46:27.443Z,98838.29
2022-08-26T10:49:00.074Z,98840.67
2022-08-26T10:51:38.791Z,98835.61
2022-08-26T10:54:10.032Z,98834.77
2022-08-26T10:57:12.481Z,98836.23
2022-08-26T10:59:57.531Z,98834.56
2022-08-26T11:02:47.154Z,98829.06
2022-08-26T11:05:20.173Z,98822.94
2022-08-26T11:07:56.294Z,98825.16
2022-08-26T11:10:25.378Z,98819.83
2022-08-26T11:12:58.238Z,98819.19
2022-08-26T11:15:28.337Z,98818.19
2022-08-26T11:18:05.225Z,98815.20
2022-08-26T11:20:42.079Z,98815.39
2022-08-26T11:23:13.554Z,98815.13
2022-08-26T11:26:09.600Z,98814.52
2022-08-26T11:28:51.661Z,98811.91
2022-08-26T11:31:26.833Z,98803.71
2022-08-26T11:34:03.548Z,98802.99
2022-08-26T11:36:37.868Z,98803.43
2022-08-26T11:39:30.752Z,98800.62
2022-08-26T11:42:16.376Z,98798.92
2022-08-26T11:44:49.593Z,98796.29
2022-08-26T11:47:28.879Z,98793.84
2022-08-26T11:50:08.675Z,98788.92
2022-08-26T11:52:37.030Z,98785.67
2022-08-26T11:55:12.189Z,98784.89
2022-08-26T11:58:02.290Z,98785.77
2022-08-26T12:00:49.720Z,98785.15
2022-08-26T12:03:24.081Z,98782.11
2022-08-26T12:05:53.829Z,98777.86
2022-08-26T12:08:27.889Z,98778.41
2022-08-26T12:11:09.751Z,98778.80
2022-08-26T12:13:39.375Z,98772.84
2022-08-26T12:16:08.127Z,98764.92
2022-08-26T12:18:38.964Z,98761.29
2022-08-26T12:21:22.501Z,98757.79
2022-08-26T12:23:55.361Z,98756.96
2022-08-26T12:26:31.732Z,98751.77
2022-08-26T12:29:12.823Z,98751.93
2022-08-26T12:31:49.864Z,98746.48
2022-08-26T12:34:18.755Z,98743.98
2022-08-26T12:36:55.840Z,98743.58
2022-08-26T12:39:39.080Z,98745.53
2022-08-26T12:42:13.429Z,98745.81
2022-08-26T12:45:04.496Z,98740.77
2022-08-26T12:47:42.574Z,98734.05
2022-08-26T12:50:19.821Z,98733.96
2022-08-26T12:53:03.217Z,98731.98
2022-08-26T12:55:42.761Z,98732.02
2022-08-26T12:58:13.797Z,98729.45
2022-08-26T13:00:49.576Z,98729.56
2022-08-26T13:03:45.575Z,98729.88
2022-08-26T13:06:23.073Z,98725.62
2022-08-26T13:09:20.984Z,98727.35
2022-08-26T13:11:49.373Z,98725.24
2022-08-26T13:14:23.748Z,98723.62
2022-08-26T13:16:53.934Z,98721.13
2022-08-26T13:19:29.694Z,98718.87
2022-08-26T13:22:00.615Z,98715.60
2022-08-26T13:24:54.937Z,98712.38
2022-08-26T13:27:28.243Z,98712.19
2022-08-26T13:29:58.112Z,98709.97
2022-08-26T13:32:27.992Z,98712.02
2022-08-26T13:34:57.827Z,98710.13
2022-08-26T13:37:34.281Z,98708.30
2022-08-26T13:40:07.440Z,98707.86
2022-08-26T13:42:35.830Z,98705.63
2022-08-26T13:45:05.346Z,98704.16
2022-08-26T13:47:33.836Z,98707.33
2022-08-26T13:50:03.101Z,98706.07
2022-08-26T13:52:31.512Z,98709.31
2022-08-26T13:55:00.798Z,98706.00
2022-08-26T13:57:30.488Z,98703.79
2022-08-26T13:59:59.645Z,98706.52
2022-08-26T14:02:28.508Z,98705.76
2022-08-26T14:04:57.028Z,98706.13
2022-08-26T14:07:25.375Z,98705.52
2022-08-26T14:09:53.877Z,98702.38
2022-08-26T14:12:22.413Z,98699.83
2022-08-26T14:14:51.306Z,98699.75
2022-08-26T14:17:22.973Z,98705.73
2022-08-26T14:19:51.442Z,98702.35
2022-08-26T14:22:22.232Z,98704.40
2022-08-26T14:24:50.949Z,98702.35
2022-08-26T14:27:19.409Z,98703.31
2022-08-26T14:29:47.995Z,98701.14
2022-08-26T14:32:26.129Z,98703.28
2022-08-26T14:34:55.726Z,98697.92
2022-08-26T14:37:24.704Z,98693.70
2022-08-26T14:39:53.634Z,98695.92
2022-08-26T14:42:31.462Z,98696.14
2022-08-26T14:45:03.269Z,98700.02
2022-08-26T14:47:32.077Z,98699.04
2022-08-26T14:50:00.737Z,98700.70
2022-08-26T14:52:29.886Z,98696.56
2022-08-26T14:54:58.352Z,98694.57
2022-08-26T14:57:26.613Z,98694.17
2022-08-26T14:59:54.988Z,98699.63
2022-08-26T15:02:33.456Z,98699.65
2022-08-26T15:05:03.090Z,98700.77
2022-08-26T15:07:31.958Z,98704.72
2022-08-26T15:10:00.561Z,98709.52
2022-08-26T15:12:28.836Z,98709.83
2022-08-26T15:14:57.388Z,98707.67
2022-08-26T15:17:26.394Z,98708.77
2022-08-26T15:19:54.798Z,98708.48
2022-08-26T15:22:23.398Z,98710.73
2022-08-26T15:24:53.832Z,98712.99
2022-08-26T15:27:22.412Z,98713.55
2022-08-26T15:29:51.009Z,98714.89
2022-08-26T15:32:19.378Z,98711.67
2022-08-26T15:34:49.620Z,98715.36
2022-08-26T15:37:18.121Z,98709.15
2022-08-26T15:39:46.546Z,98709.73
2022-08-26T15:42:15.593Z,98709.85
2022-08-26T15:44:45.595Z,98708.36
2022-08-26T15:47:14.009Z,98708.31
2022-08-26T15:49:42.610Z,98705.68
2022-08-26T15:52:10.975Z,98706.06
2022-08-26T15:54:39.832Z,98707.39
2022-08-26T15:57:11.496Z,98708.27
2022-08-26T15:59:40.945Z,98708.06
2022-08-26T16:02:09.809Z,98703.35
2022-08-26T16:04:38.250Z,98705.00
2022-08-26T16:07:06.778Z,98708.00
2022-08-26T16:09:35.062Z,98704.27
2022-08-26T16:12:03.790Z,98704.86
2022-08-26T16:14:32.284Z,98705.22
2022-08-26T16:17:00.708Z,98700.45
2022-08-26T16:19:29.380Z,98702.06
2022-08-26T16:21:57.801Z,98701.81
2022-08-26T16:24:30.169Z,98697.25
2022-08-26T16:26:59.229Z,98696.47
2022-08-26T16:29:28.637Z,98696.16
2022-08-26T16:31:56.933Z,98696.08
2022-08-26T16:34:25.382Z,98695.17
2022-08-26T16:36:53.749Z,98696.56
2022-08-26T16:39:22.074Z,98695.95
2022-08-26T16:41:50.561Z,98694.77
2022-08-26T16:44:19.412Z,98694.86
2022-08-26T16:46:48.465Z,98694.09
2022-08-26T16:49:16.937Z,98692.29
2022-08-26T16:51:45.482Z,98689.82
2022-08-26T16:54:13.821Z,98684.11
2022-08-26T16:56:42.262Z,98684.01
2022-08-26T16:59:11.851Z,98678.63
2022-08-26T17:01:40.388Z,98677.25
2022-08-26T17:04:08.900Z,98678.90
2022-08-26T17:06:37.206Z,98674.66
2022-08-26T17:09:05.765Z,98676.70
2022-08-26T17:11:35.535Z,98677.55
2022-08-26T17:14:05.512Z,98682.27
2022-08-26T17:16:34.401Z,98681.89
2022-08-26T17:19:04.654Z,98686.55
2022-08-26T17:21:35.038Z,98680.98
2022-08-26T17:24:05.169Z,98678.45
2022-08-26T17:26:34.134Z,98676.66
2022-08-26T17:29:02.366Z,98680.27
2022-08-26T17:31:32.137Z,98681.97
2022-08-26T17:34:00.762Z,98683.48
2022-08-26T17:36:29.419Z,98686.13
2022-08-26T17:38:58.696Z,98681.19
2022-08-26T17:41:28.150Z,98682.35
2022-08-26T17:43:56.538Z,98676.41
2022-08-26T17:46:25.097Z,98679.80
2022-08-26T17:48:53.410Z,98677.80
2022-08-26T17:51:23.044Z,98678.80
2022-08-26T17:53:52.081Z,98682.93
2022-08-26T17:56:26.899Z,98680.73
2022-08-26T17:58:58.045Z,98684.50
2022-08-26T18:01:32.077Z,98681.36
2022-08-26T18:04:00.985Z,98677.77
2022-08-26T18:06:30.864Z,98678.56
2022-08-26T18:09:00.826Z,98679.42
2022-08-26T18:11:30.244Z,98677.36
2022-08-26T18:13:59.403Z,98684.80
2022-08-26T18:16:29.975Z,98682.42
2022-08-26T18:18:58.542Z,98685.00
2022-08-26T18:21:27.877Z,98691.88
2022-08-26T18:23:56.442Z,98688.09
2022-08-26T18:26:29.150Z,98691.58
2022-08-26T18:28:58.130Z,98693.84
2022-08-26T18:31:27.017Z,98690.47
2022-08-26T18:33:56.075Z,98693.89
2022-08-26T18:36:33.877Z,98693.23
2022-08-26T18:39:04.346Z,98694.08
2022-08-26T18:41:38.625Z,98689.42
2022-08-26T18:44:09.484Z,98687.46
2022-08-26T18:46:40.564Z,98683.36
2022-08-26T18:49:11.394Z,98681.51
2022-08-26T18:51:40.176Z,98680.58
2022-08-26T18:54:09.191Z,98680.67
2022-08-26T18:56:39.513Z,98683.59
2022-08-26T18:59:08.456Z,98681.65
2022-08-26T19:01:38.232Z,98687.47
2022-08-26T19:04:08.628Z,98689.88
2022-08-26T19:06:45.664Z,98690.86
2022-08-26T19:09:15.323Z,98686.16
2022-08-26T19:11:49.686Z,98691.11
2022-08-26T19:14:18.914Z,98690.71
2022-08-26T19:16:49.673Z,98689.73
2022-08-26T19:19:19.839Z,98684.73
2022-08-26T19:21:48.288Z,98686.69
2022-08-26T19:24:18.285Z,98683.56
2022-08-26T19:26:57.653Z,98688.36
2022-08-26T19:29:33.951Z,98687.69
2022-08-26T19:32:03.473Z,98690.80
2022-08-26T19:34:32.475Z,98691.63
2022-08-26T19:37:00.743Z,98687.97
2022-08-26T19:39:29.309Z,98690.40
2022-08-26T19:41:57.682Z,98688.71
2022-08-26T19:44:44.774Z,98691.45
2022-08-26T19:47:14.209Z,98688.64
2022-08-26T19:49:42.925Z,98690.71
2022-08-26T19:52:11.566Z,98688.04
2022-08-26T19:54:40.510Z,98686.73
2022-08-26T19:57:08.817Z,98683.58
2022-08-26T19:59:37.026Z,98683.50
2022-08-26T20:02:10.129Z,98681.80
2022-08-26T20:04:39.960Z,98683.80
2022-08-26T20:07:09.251Z,98683.73
2022-08-26T20:09:37.746Z,98685.10
2022-08-26T20:12:07.043Z,98686.49
2022-08-26T20:14:36.066Z,98688.05
2022-08-26T20:17:06.325Z,98690.70
2022-08-26T20:19:53.951Z,98689.23
2022-08-26T20:22:22.760Z,98692.33
2022-08-26T20:24:51.877Z,98690.62
2022-08-26T20:27:22.508Z,98690.91
2022-08-26T20:29:50.859Z,98691.48
2022-08-26T20:32:20.088Z,98692.21
2022-08-26T20:34:49.610Z,98693.85
2022-08-26T20:37:21.448Z,98693.04
2022-08-26T20:39:55.477Z,98698.67
2022-08-26T20:42:23.866Z,98701.09
2022-08-26T20:44:55.029Z,98701.51
2022-08-26T20:47:26.511Z,98701.49
2022-08-26T20:49:57.644Z,98700.16
2022-08-26T20:52:26.107Z,98702.04
2022-08-26T20:54:54.418Z,98704.73
2022-08-26T20:57:22.784Z,98713.08
2022-08-26T20:59:51.284Z,98713.31
2022-08-26T21:02:19.751Z,98712.55
2022-08-26T21:04:48.086Z,98714.39
2022-08-26T21:07:16.470Z,98716.30
2022-08-26T21:09:46.269Z,98715.68
2022-08-26T21:12:14.548Z,98713.66
2022-08-26T21:14:46.635Z,98712.10
2022-08-26T21:17:17.652Z,98715.90
2022-08-26T21:19:45.985Z,98717.45
2022-08-26T21:22:14.297Z,98719.73
2022-08-26T21:24:42.573Z,98723.72
2022-08-26T21:27:11.348Z,98724.33
2022-08-26T21:29:39.785Z,98724.09
2022-08-26T21:32:08.512Z,98726.10
2022-08-26T21:34:40.771Z,98723.88
2022-08-26T21:37:15.348Z,98724.74
2022-08-26T21:39:45.463Z,98723.83
2022-08-26T21:42:13.717Z,98723.68
2022-08-26T21:44:42.994Z,98729.33
2022-08-26T21:47:13.932Z,98728.10
2022-08-26T21:49:44.261Z,98729.01
2022-08-26T21:52:12.718Z,98730.21
2022-08-26T21:54:40.977Z,98730.49
2022-08-26T21:57:18.529Z,98731.20
2022-08-26T21:59:46.861Z,98732.38
2022-08-26T22:02:15.954Z,98731.34
2022-08-26T22:04:48.602Z,98727.44
2022-08-26T22:07:20.002Z,98730.30
2022-08-26T22:09:49.497Z,98731.01
2022-08-26T22:12:18.509Z,98734.25
2022-08-26T22:14:47.264Z,98735.19
2022-08-26T22:17:16.173Z,98734.59
2022-08-26T22:19:46.272Z,98737.52
2022-08-26T22:22:15.763Z,98736.77
2022-08-26T22:24:44.180Z,98735.94
2022-08-26T22:27:13.569Z,98734.64
2022-08-26T22:29:42.061Z,98735.44
2022-08-26T22:32:10.553Z,98731.55
2022-08-26T22:34:39.016Z,98729.79
2022-08-26T22:37:07.843Z,98730.97
2022-08-26T22:39:36.246Z,98731.07
2022-08-26T22:42:04.889Z,98732.52
2022-08-26T22:44:33.316Z,98727.73
2022-08-26T22:47:01.685Z,98724.89
2022-08-26T22:49:30.092Z,98724.58
2022-08-26T22:51:58.406Z,98725.07
2022-08-26T22:54:26.885Z,98722.05
2022-08-26T22:56:56.048Z,98722.16
2022-08-26T22:59:24.740Z,98721.82
2022-08-26T23:01:53.371Z,98723.63
2022-08-26T23:04:21.803Z,98722.11
2022-08-26T23:06:50.355Z,98726.15
2022-08-26T23:09:18.985Z,98723.33
2022-08-26T23:11:48.755Z,98722.10
2022-08-26T23:14:18.688Z,98721.04
2022-08-26T23:16:47.866Z,98720.46
2022-08-26T23:19:21.855Z,98717.83
2022-08-26T23:21:50.943Z,98716.86
2022-08-26T23:24:19.496Z,98710.95
2022-08-26T23:26:47.774Z,98710.89
2022-08-26T23:29:16.139Z,98709.72
2022-08-26T23:31:44.985Z,98703.70
2022-08-26T23:34:32.886Z,98702.89
2022-08-26T23:37:02.001Z,98702.47
2022-08-26T23:39:33.113Z,98698.49
2022-08-26T23:42:01.871Z,98701.13
2022-08-26T23:44:31.504Z,98701.35
2022-08-26T23:47:00.931Z,98698.27
2022-08-26T23:49:29.503Z,98691.42
2022-08-26T23:52:16.921Z,98690.58
2022-08-26T23:54:47.855Z,98692.27
2022-08-26T23:57:18.458Z,98689.73
2022-08-26T23:59:48.725Z,98687.95
